Time;durP1;ratioP1;P1;durP2;ratioP2;P2;SDS_P1;SDS_P2;PMS_P1;PMS_P2;Temp;Humidity;BMP_temperature;BMP_pressure;BME280_temperature;BME280_humidity;BME280_pressure;Samples;Min_cycle;Max_cycle;Signal;HPM_P1;HPM_P2
2022/06/23 00:01:49;;;;;;;6.40;4.10;;;;;;;13.99;62.38;98386.93;220374;1270;22850;-67
2022/06/23 00:07:16;;;;;;;5.00;3.60;;;;;;;13.92;62.87;98381.30;220764;1270;22523;-68
2022/06/23 00:13:13;;;;;;;7.10;3.30;;;;;;;13.83;62.56;98379.95;220466;1268;25373;-68
2022/06/23 00:18:59;;;;;;;5.80;3.20;;;;;;;13.78;62.65;98375.17;216902;1268;5338235;-68
2022/06/23 00:25:02;;;;;;;;;;;;;;;;;;;;;
2022/06/23 00:31:16;;;;;;;4.40;3.00;;;;;;;13.68;62.88;98380.36;220859;1270;25214;-69
2022/06/23 00:37:27;;;;;;;7.00;3.10;;;;;;;13.62;62.94;98380.58;220837;1270;24231;-68
2022/06/23 00:43:48;;;;;;;8.10;3.00;;;;;;;13.59;63.07;98385.88;220325;1270;22556;-68
2022/06/23 01:08:34;;;;;;;4.50;3.20;;;;;;;13.47;63.38;98396.70;220552;1270;25511;-68
2022/06/23 01:14:36;;;;;;;5.60;3.50;;;;;;;13.45;63.59;98401.13;220240;1270;22532;-68
2022/06/23 01:21:29;;;;;;;6.90;3.20;;;;;;;13.44;63.83;98404.33;220424;1270;26378;-68
2022/06/23 01:45:53;;;;;;;5.90;3.70;;;;;;;13.20;64.32;98411.96;220494;1270;22595;-68
2022/06/23 01:52:33;;;;;;;7.00;3.60;;;;;;;13.07;64.63;98419.98;220692;1270;22604;-67
2022/06/23 01:58:04;;;;;;;6.70;3.40;;;;;;;12.98;65.07;98418.62;221050;1269;24233;-69
2022/06/23 02:04:06;;;;;;;5.20;3.60;;;;;;;12.92;65.36;98426.86;220557;1268;22674;-68
2022/06/23 02:11:08;;;;;;;5.80;3.60;;;;;;;12.86;65.73;98432.42;220127;1270;24434;-68
2022/06/23 02:17:22;;;;;;;7.40;4.10;;;;;;;12.78;65.91;98432.30;220205;1270;22528;-68
2022/06/23 02:24:02;;;;;;;6.20;3.70;;;;;;;12.71;66.31;98434.64;220446;1270;25345;-67
2022/06/23 02:31:10;;;;;;;4.50;3.80;;;;;;;12.65;66.71;98435.98;220231;1270;22553;-68
2022/06/23 02:44:10;;;;;;;5.80;3.60;;;;;;;12.55;67.03;98441.31;220205;1270;22561;-68
2022/06/23 02:57:20;;;;;;;;;;;;;;;;;;;;;
2022/06/23 03:10:39;;;;;;;;;;;;;;;12.53;67.93;98465.86;220230;1271;22573;-68
2022/06/23 03:17:07;;;;;;;7.00;4.40;;;;;;;12.59;68.41;98469.39;220405;1270;23784;-69
2022/06/23 03:24:03;;;;;;;7.10;4.50;;;;;;;12.87;68.75;98482.48;220434;1270;24278;-67
2022/06/23 03:30:30;;;;;;;;;;;;;;;;;;;;;
2022/06/23 03:37:10;;;;;;;7.30;4.60;;;;;;;14.30;67.61;98492.42;220012;1270;22530;-69
2022/06/23 03:43:39;;;;;;;6.20;3.80;;;;;;;14.94;66.39;98505.34;220186;1270;25406;-68
2022/06/23 03:50:28;;;;;;;6.40;3.80;;;;;;;15.53;65.34;98506.31;220024;1270;25518;-69
2022/06/23 03:56:32;;;;;;;6.70;4.30;;;;;;;16.06;63.94;98518.38;220857;1270;24705;-68
2022/06/23 04:02:24;;;;;;;5.60;3.80;;;;;;;16.47;63.48;98521.66;220631;1270;24225;-68
2022/06/23 04:08:14;;;;;;;5.80;4.30;;;;;;;17.15;62.71;98529.13;220616;1270;22553;-69
2022/06/23 04:13:51;;;;;;;8.10;4.90;;;;;;;17.46;61.36;98527.83;220706;1270;24224;-69
2022/06/23 04:19:27;;;;;;;6.80;4.30;;;;;;;17.67;61.04;98532.82;220247;1268;24410;-69
2022/06/23 04:25:06;;;;;;;6.60;4.20;;;;;;;17.59;60.39;98535.27;220877;1270;25425;-69
2022/06/23 04:30:39;;;;;;;8.10;4.80;;;;;;;17.35;60.31;98544.29;220279;1270;22557;-69
2022/06/23 04:36:01;;;;;;;9.90;5.60;;;;;;;17.10;60.55;98548.44;220478;1270;22616;-68
2022/06/23 04:41:58;;;;;;;8.60;4.80;;;;;;;16.90;61.01;98551.20;220277;1268;22568;-69
2022/06/23 04:47:48;;;;;;;10.30;5.20;;;;;;;16.76;61.77;98553.64;220494;1270;24340;-70
2022/06/23 04:54:09;;;;;;;;;;;;;;;;;;;;;
2022/06/23 04:59:54;;;;;;;12.20;6.20;;;;;;;16.54;63.52;98559.54;220229;1270;22552;-67
2022/06/23 05:05:32;;;;;;;;;;;;;;;;;;;;;
2022/06/23 05:11:17;;;;;;;10.80;5.50;;;;;;;16.67;64.98;98576.30;220771;1270;22532;-67
2022/06/23 05:17:17;;;;;;;9.40;6.30;;;;;;;16.84;65.10;98578.71;220720;1270;22553;-69
2022/06/23 05:23:41;;;;;;;12.30;6.70;;;;;;;17.02;65.20;98587.09;221115;1270;23081;-69
2022/06/23 05:29:18;;;;;;;10.20;6.40;;;;;;;17.26;64.84;98595.52;220854;1268;25364;-68
2022/06/23 05:35:15;;;;;;;12.10;6.90;;;;;;;17.44;63.98;98598.77;220622;1270;22531;-71
2022/06/23 05:40:47;;;;;;;9.00;5.40;;;;;;;17.60;63.52;98610.06;220361;1270;24193;-68
2022/06/23 05:46:07;;;;;;;12.10;5.50;;;;;;;17.75;62.95;98621.27;220528;1270;22548;-68
2022/06/23 05:51:54;;;;;;;;;;;;;;;;;;;;;
2022/06/23 05:57:18;;;;;;;8.20;4.60;;;;;;;18.16;62.30;98624.26;220600;1271;25333;-68
2022/06/23 06:02:43;;;;;;;8.80;4.60;;;;;;;18.35;61.83;98627.56;220367;1271;22696;-69
2022/06/23 06:07:46;;;;;;;6.80;3.90;;;;;;;18.54;61.24;98630.27;219935;1271;25871;-68
2022/06/23 06:13:20;;;;;;;6.90;3.60;;;;;;;18.78;60.61;98635.11;220360;1271;24305;-69
2022/06/23 06:18:54;;;;;;;;;;;;;;;;;;;;;
2022/06/23 06:24:30;;;;;;;4.70;3.00;;;;;;;19.25;59.52;98633.00;220351;1270;22670;-70
2022/06/23 06:29:47;;;;;;;5.40;3.50;;;;;;;19.52;58.76;98637.71;220043;1270;24238;-70
2022/06/23 06:35:39;;;;;;;7.60;3.70;;;;;;;19.74;58.19;98643.29;220338;1271;22541;-69
2022/06/23 06:41:08;;;;;;;7.70;4.60;;;;;;;20.01;57.67;98648.81;220166;1270;25427;-70
2022/06/23 06:46:17;;;;;;;5.30;3.10;;;;;;;20.22;56.69;98653.54;220416;1271;22567;-71
2022/06/23 06:51:32;;;;;;;4.30;3.00;;;;;;;20.43;55.94;98655.45;220153;1268;22514;-70
2022/06/23 06:57:02;;;;;;;5.00;3.00;;;;;;;20.63;55.31;98650.89;220430;1269;24255;-69
2022/06/23 07:02:24;;;;;;;5.00;3.50;;;;;;;20.93;55.18;98650.23;220282;1271;22534;-70
2022/06/23 07:07:33;;;;;;;5.70;3.20;;;;;;;21.11;54.19;98653.91;219980;1271;25366;-70
2022/06/23 07:13:08;;;;;;;5.40;3.00;;;;;;;21.37;53.79;98662.46;220654;1268;25305;-70
2022/06/23 07:18:23;;;;;;;5.20;2.90;;;;;;;21.62;53.05;98670.28;220497;1271;24286;-70
2022/06/23 07:23:51;;;;;;;17.50;15.00;;;;;;;21.82;52.49;98670.92;220400;1271;25335;-71
2022/06/23 07:29:05;;;;;;;7.30;3.30;;;;;;;22.04;51.96;98673.27;220040;1271;22577;-70
2022/06/23 07:34:14;;;;;;;3.10;1.90;;;;;;;22.24;50.58;98682.82;221583;1268;24261;-70
2022/06/23 07:39:35;;;;;;;2.70;1.70;;;;;;;22.41;49.72;98692.43;221391;1268;22557;-69
2022/06/23 07:44:49;;;;;;;1.90;1.70;;;;;;;22.62;48.60;98697.46;220272;1271;23792;-68
2022/06/23 07:49:52;;;;;;;4.20;1.90;;;;;;;22.81;47.90;98695.89;220741;1268;22568;-68
2022/06/23 07:54:55;;;;;;;3.10;1.80;;;;;;;22.94;46.89;98698.69;220144;1268;22546;-69
2022/06/23 08:00:01;;;;;;;2.80;1.60;;;;;;;23.09;46.43;98698.55;220143;1271;25346;-69
2022/06/23 08:05:19;;;;;;;3.30;1.90;;;;;;;23.34;45.70;98702.34;220338;1268;22771;-68
2022/06/23 08:10:27;;;;;;;2.70;2.00;;;;;;;23.55;45.37;98702.77;220873;1269;22534;-68
2022/06/23 08:21:23;;;;;;;3.90;2.60;;;;;;;24.16;44.32;98702.00;219814;1272;22612;-68
2022/06/23 08:26:30;;;;;;;4.10;2.90;;;;;;;24.26;43.57;98696.89;220308;1269;25459;-71
2022/06/23 08:31:33;;;;;;;6.50;2.90;;;;;;;24.35;43.38;98698.11;221786;1268;24228;-73
2022/06/23 08:37:01;;;;;;;5.30;3.30;;;;;;;24.56;42.62;98703.38;221477;1271;22531;-71
2022/06/23 08:42:03;;;;;;;5.80;2.90;;;;;;;24.88;42.44;98705.10;222076;1268;25888;-71
2022/06/23 08:47:14;;;;;;;5.80;2.50;;;;;;;25.26;41.69;98708.80;222326;1268;22599;-72
2022/06/23 08:52:43;;;;;;;2.40;2.20;;;;;;;25.62;40.94;98711.30;222083;1268;24789;-72
2022/06/23 08:57:59;;;;;;;4.10;2.90;;;;;;;25.97;40.36;98717.10;221936;1268;22716;-72
2022/06/23 09:03:09;;;;;;;4.50;2.90;;;;;;;26.15;40.04;98713.80;221773;1268;24347;-70
2022/06/23 09:08:32;;;;;;;4.30;2.80;;;;;;;26.19;39.49;98707.45;221978;1268;22549;-71
2022/06/23 09:14:38;;;;;;;6.10;4.10;;;;;;;26.29;39.43;98701.46;221826;1271;22540;-71
2022/06/23 09:20:00;;;;;;;3.10;2.60;;;;;;;26.30;38.58;98697.61;221794;1271;23273;-71
2022/06/23 09:25:29;;;;;;;3.30;2.30;;;;;;;26.31;38.00;98702.16;221794;1268;25407;-71
2022/06/23 09:30:45;;;;;;;4.00;2.50;;;;;;;26.39;38.11;98702.68;221531;1268;22540;-71
2022/06/23 09:36:18;;;;;;;4.50;3.10;;;;;;;26.28;37.56;98706.63;221778;1268;24464;-71
2022/06/23 09:41:42;;;;;;;3.20;2.80;;;;;;;26.27;37.47;98708.52;221606;1268;24268;-72
2022/06/23 09:47:04;;;;;;;3.20;2.90;;;;;;;26.39;36.90;98711.01;222148;1268;22558;-72
2022/06/23 09:52:09;;;;;;;4.60;3.30;;;;;;;26.40;36.67;98710.13;221945;1268;22526;-72
2022/06/23 09:57:42;;;;;;;5.20;3.50;;;;;;;26.31;36.53;98710.16;222171;1267;22555;-71
2022/06/23 10:02:52;;;;;;;11.40;10.20;;;;;;;26.43;36.88;98715.92;221599;1268;22561;-71
2022/06/23 10:08:19;;;;;;;4.20;3.40;;;;;;;26.59;36.66;98716.75;221712;1270;22673;-71
2022/06/23 10:13:45;;;;;;;3.50;3.20;;;;;;;26.74;36.52;98710.58;221640;1268;22569;-71
2022/06/23 10:19:11;;;;;;;3.80;3.20;;;;;;;27.09;36.53;98713.09;222062;1271;25414;-73
2022/06/23 10:24:53;;;;;;;4.30;3.10;;;;;;;27.34;36.23;98715.55;221714;1268;22600;-71
2022/06/23 10:30:13;;;;;;;3.60;3.30;;;;;;;27.63;35.93;98712.36;221683;1268;22983;-72
2022/06/23 10:35:57;;;;;;;3.50;2.80;;;;;;;27.94;35.35;98705.67;221956;1268;22537;-72
2022/06/23 10:41:21;;;;;;;3.10;2.50;;;;;;;28.23;34.05;98715.95;220537;1270;26458;-72
2022/06/23 10:46:34;;;;;;;5.40;3.00;;;;;;;28.08;33.37;98713.98;222018;1268;22569;-71
2022/06/23 10:51:46;;;;;;;3.50;2.90;;;;;;;28.15;34.22;98706.27;221691;1268;22560;-72
2022/06/23 10:57:10;;;;;;;3.40;2.90;;;;;;;28.36;33.68;98703.30;222060;1268;26018;-70
2022/06/23 11:02:30;;;;;;;4.40;3.10;;;;;;;28.33;33.01;98696.10;222006;1268;23243;-71
2022/06/23 11:07:55;;;;;;;3.10;2.90;;;;;;;28.20;33.48;98695.52;222253;1268;22632;-72
2022/06/23 11:13:02;;;;;;;4.20;3.20;;;;;;;27.68;33.43;98697.39;221743;1268;22713;-72
2022/06/23 11:18:42;;;;;;;4.40;3.50;;;;;;;27.23;34.06;98692.50;221861;1270;22541;-71
2022/06/23 11:23:58;;;;;;;4.90;3.60;;;;;;;27.14;34.34;98698.36;221000;1270;22574;-71
2022/06/23 11:29:27;;;;;;;4.20;3.40;;;;;;;27.28;34.76;98690.37;221871;1268;24794;-71
2022/06/23 11:35:01;;;;;;;3.10;2.80;;;;;;;27.47;34.07;98689.94;221538;1268;22535;-72
2022/06/23 11:40:39;;;;;;;4.20;3.20;;;;;;;27.63;33.84;98687.92;222097;1268;22564;-70
2022/06/23 11:45:54;;;;;;;3.50;3.20;;;;;;;27.95;33.75;98687.02;221671;1268;22546;-71
2022/06/23 11:51:22;;;;;;;3.40;2.90;;;;;;;28.19;33.41;98682.23;221773;1268;24284;-70
2022/06/23 11:56:24;;;;;;;3.40;3.00;;;;;;;28.31;33.15;98679.13;221587;1268;27186;-72
2022/06/23 12:01:28;;;;;;;5.70;5.10;;;;;;;28.25;33.23;98678.16;220509;1268;24291;-70
2022/06/23 12:06:54;;;;;;;5.00;3.30;;;;;;;28.13;33.10;98674.11;221718;1268;22560;-70
2022/06/23 12:12:09;;;;;;;3.20;2.70;;;;;;;27.90;33.12;98671.11;220276;1270;22533;-70
2022/06/23 12:17:26;;;;;;;3.00;2.70;;;;;;;27.66;32.82;98669.42;218968;1268;3513187;-70
2022/06/23 12:22:56;;;;;;;2.70;2.40;;;;;;;27.58;33.30;98663.36;221763;1268;25454;-70
2022/06/23 12:28:13;;;;;;;4.40;3.30;;;;;;;27.62;33.25;98658.30;221480;1268;24397;-71
2022/06/23 12:33:37;;;;;;;3.80;3.30;;;;;;;27.69;33.58;98660.36;221612;1268;24282;-70
2022/06/23 12:38:53;;;;;;;3.60;3.00;;;;;;;27.68;32.84;98656.35;221764;1268;22558;-70
2022/06/23 12:44:19;;;;;;;4.70;3.50;;;;;;;27.56;33.33;98651.83;221696;1270;25393;-70
2022/06/23 12:50:00;;;;;;;;;;;;;;;;;;;;;
2022/06/23 12:55:15;;;;;;;4.30;3.50;;;;;;;27.58;33.70;98643.87;221623;1268;24296;-71
2022/06/23 13:00:38;;;;;;;4.20;3.10;;;;;;;27.76;32.85;98637.97;221742;1268;22540;-71
2022/06/23 13:06:16;;;;;;;3.10;2.80;;;;;;;27.82;33.19;98639.40;221712;1270;25310;-71
2022/06/23 13:11:50;;;;;;;;;;;;;;;;;;;;;
2022/06/23 13:17:54;;;;;;;5.30;3.60;;;;;;;27.82;32.85;98640.66;221510;1268;23103;-72
2022/06/23 13:23:12;;;;;;;3.80;3.40;;;;;;;27.76;33.68;98640.73;221199;1270;22703;-70
2022/06/23 13:28:46;;;;;;;3.60;3.20;;;;;;;27.87;33.51;98635.89;221861;1268;22567;-72
2022/06/23 13:34:32;;;;;;;3.30;3.00;;;;;;;27.76;33.20;98632.78;221542;1270;23115;-71
2022/06/23 13:39:57;;;;;;;4.20;3.80;;;;;;;27.86;33.61;98629.45;221645;1268;22601;-70
2022/06/23 13:45:05;;;;;;;3.60;3.30;;;;;;;28.03;33.63;98633.07;220161;1270;26394;-69
2022/06/23 13:50:15;;;;;;;5.60;2.90;;;;;;;28.13;33.21;98626.13;220559;1268;26342;-69
2022/06/23 13:55:31;;;;;;;3.50;3.20;;;;;;;28.25;33.28;98625.54;220946;1268;25416;-69
2022/06/23 14:00:50;;;;;;;2.90;2.70;;;;;;;28.31;32.67;98626.64;220566;1270;23770;-69
2022/06/23 14:06:16;;;;;;;3.80;3.10;;;;;;;28.29;33.03;98622.40;220778;1270;22759;-68
2022/06/23 14:11:33;;;;;;;3.70;2.80;;;;;;;28.38;32.83;98617.50;220953;1268;22547;-68
2022/06/23 14:16:45;;;;;;;3.50;3.00;;;;;;;28.46;32.74;98614.65;220593;1270;22577;-68
2022/06/23 14:22:12;;;;;;;3.60;3.00;;;;;;;28.62;32.72;98617.52;221127;1268;22556;-69
2022/06/23 14:27:30;;;;;;;3.40;2.90;;;;;;;28.55;32.43;98614.06;221002;1268;26489;-69
2022/06/23 14:32:41;;;;;;;4.00;3.30;;;;;;;28.39;32.36;98614.42;221163;1268;24683;-70
2022/06/23 14:37:59;;;;;;;3.00;2.80;;;;;;;28.34;32.72;98609.84;220761;1268;22651;-68
2022/06/23 14:43:22;;;;;;;3.20;2.90;;;;;;;28.26;32.31;98611.19;220845;1270;22545;-69
2022/06/23 14:49:09;;;;;;;3.70;3.20;;;;;;;28.15;32.64;98606.14;220490;1270;22563;-68
2022/06/23 14:54:30;;;;;;;3.30;3.00;;;;;;;28.19;32.43;98605.52;220739;1270;26404;-69
2022/06/23 14:59:53;;;;;;;3.70;3.40;;;;;;;28.16;32.31;98604.06;220878;1268;22576;-69
2022/06/23 15:05:25;;;;;;;5.00;3.10;;;;;;;28.22;32.49;98600.08;220728;1268;22556;-69
2022/06/23 15:10:49;;;;;;;3.40;3.10;;;;;;;28.23;32.39;98595.89;221047;1268;25367;-68
2022/06/23 15:15:59;;;;;;;3.80;3.30;;;;;;;28.27;32.59;98594.27;220938;1268;24235;-69
2022/06/23 15:27:06;;;;;;;4.10;3.40;;;;;;;28.08;32.26;98591.42;220918;1268;22524;-68
2022/06/23 15:32:22;;;;;;;3.30;3.00;;;;;;;27.99;32.11;98586.33;220817;1270;22555;-68
2022/06/23 15:38:00;;;;;;;3.20;2.90;;;;;;;27.89;32.34;98585.94;220668;1268;25248;-69
2022/06/23 15:43:15;;;;;;;3.50;3.20;;;;;;;27.86;32.41;98586.84;220678;1270;24286;-69
2022/06/23 15:48:24;;;;;;;21.10;18.90;;;;;;;27.82;32.69;98583.80;220910;1268;24313;-69
2022/06/23 15:53:30;;;;;;;3.80;3.40;;;;;;;27.85;32.67;98576.16;220839;1268;22534;-67
2022/06/23 15:58:39;;;;;;;2.90;2.70;;;;;;;27.89;32.88;98573.91;220732;1270;24311;-68
2022/06/23 16:03:49;;;;;;;4.00;3.20;;;;;;;27.86;32.47;98572.29;220649;1268;22970;-68
2022/06/23 16:09:04;;;;;;;4.30;2.80;;;;;;;27.77;32.96;98575.22;220716;1270;22708;-69
2022/06/23 16:14:19;;;;;;;3.00;2.80;;;;;;;27.74;32.89;98573.29;220976;1268;24261;-69
2022/06/23 16:19:52;;;;;;;3.10;2.90;;;;;;;27.71;33.22;98582.83;220885;1268;22584;-68
2022/06/23 16:25:15;;;;;;;3.20;2.70;;;;;;;27.72;32.89;98583.05;220719;1268;22550;-68
2022/06/23 16:30:34;;;;;;;6.60;2.70;;;;;;;27.68;32.92;98584.42;220905;1269;24304;-69
2022/06/23 16:36:14;;;;;;;3.00;2.50;;;;;;;27.58;33.13;98579.42;220621;1270;22594;-69
2022/06/23 16:41:42;;;;;;;4.40;3.60;;;;;;;27.51;33.15;98574.84;220705;1268;23832;-68
2022/06/23 16:47:18;;;;;;;4.00;2.30;;;;;;;27.42;33.22;98571.15;220635;1270;23822;-69
2022/06/23 16:52:57;;;;;;;3.40;2.50;;;;;;;27.26;33.48;98566.17;220905;1269;22596;-69
2022/06/23 16:58:22;;;;;;;2.00;1.90;;;;;;;27.11;33.73;98562.99;220924;1268;24107;-69
2022/06/23 17:03:32;;;;;;;3.50;3.00;;;;;;;26.97;34.42;98568.35;220962;1270;25380;-69
2022/06/23 17:09:18;;;;;;;2.40;2.20;;;;;;;27.05;34.99;98567.03;220970;1268;22536;-68
2022/06/23 17:14:26;;;;;;;4.40;2.90;;;;;;;28.40;34.45;98569.59;220805;1270;22592;-69
2022/06/23 17:19:38;;;;;;;3.60;2.90;;;;;;;30.30;33.24;98570.73;220338;1270;25492;-68
2022/06/23 17:24:52;;;;;;;2.70;2.20;;;;;;;32.07;32.17;98576.80;221030;1268;22535;-69
2022/06/23 17:30:14;;;;;;;2.70;2.40;;;;;;;33.48;30.52;98578.59;220767;1269;25328;-68
2022/06/23 17:35:35;;;;;;;4.70;2.70;;;;;;;33.85;29.36;98570.53;220917;1270;22544;-70
2022/06/23 17:46:15;;;;;;;2.80;2.60;;;;;;;31.12;29.57;98578.19;220975;1270;24771;-67
2022/06/23 17:51:25;;;;;;;3.00;2.60;;;;;;;29.64;30.92;98578.13;220954;1268;22662;-68
2022/06/23 17:57:05;;;;;;;5.10;3.10;;;;;;;28.44;32.04;98573.35;220787;1270;25246;-68
2022/06/23 18:02:25;;;;;;;3.20;2.90;;;;;;;27.35;33.30;98579.83;220956;1270;22525;-66
2022/06/23 18:07:33;;;;;;;3.10;2.90;;;;;;;26.51;34.76;98578.35;220444;1270;24294;-68
2022/06/23 18:13:16;;;;;;;5.40;4.90;;;;;;;25.78;35.81;98582.84;220619;1270;22517;-68
2022/06/23 18:18:33;;;;;;;4.50;3.40;;;;;;;25.16;36.91;98583.17;220533;1270;22579;-68
2022/06/23 18:23:51;;;;;;;3.30;3.00;;;;;;;24.69;37.84;98583.20;220963;1268;24263;-69
2022/06/23 18:29:02;;;;;;;15.50;13.80;;;;;;;24.31;38.55;98586.58;220999;1268;22547;-68
2022/06/23 18:34:23;;;;;;;5.20;4.40;;;;;;;23.96;39.36;98587.98;220851;1268;22621;-68
2022/06/23 18:40:03;;;;;;;4.60;3.20;;;;;;;23.62;39.74;98595.02;220957;1268;25324;-68
2022/06/23 18:45:18;;;;;;;3.00;2.70;;;;;;;23.27;40.30;98593.59;220870;1269;22620;-69
2022/06/23 18:50:29;;;;;;;3.90;2.70;;;;;;;23.01;40.44;98601.67;220340;1270;22538;-69
2022/06/23 18:55:53;;;;;;;3.30;3.00;;;;;;;22.77;41.01;98605.42;220308;1270;22551;-69
2022/06/23 19:01:33;;;;;;;3.30;2.60;;;;;;;22.52;41.50;98613.42;221447;1268;22624;-69
2022/06/23 19:06:59;;;;;;;3.50;2.70;;;;;;;22.23;42.02;98617.56;220921;1270;25309;-69
2022/06/23 19:12:30;;;;;;;3.00;2.70;;;;;;;21.98;42.41;98614.11;220470;1270;25313;-69
2022/06/23 19:17:54;;;;;;;2.80;2.60;;;;;;;21.76;42.67;98623.86;220636;1270;22611;-69
2022/06/23 19:23:22;;;;;;;3.00;2.60;;;;;;;21.54;43.06;98624.44;220808;1271;22530;-69
2022/06/23 19:28:39;;;;;;;3.10;2.60;;;;;;;21.33;43.43;98626.98;220786;1270;22558;-69
2022/06/23 19:33:47;;;;;;;3.00;2.80;;;;;;;21.15;43.71;98631.10;220865;1268;22541;-70
2022/06/23 19:39:06;;;;;;;3.60;2.60;;;;;;;20.96;44.15;98627.35;220732;1268;22693;-68
2022/06/23 19:44:33;;;;;;;5.80;3.20;;;;;;;20.80;44.49;98625.73;220813;1268;25070;-69
2022/06/23 19:49:57;;;;;;;5.10;3.00;;;;;;;20.63;44.87;98629.66;220782;1268;25315;-69
2022/06/23 19:55:34;;;;;;;2.60;2.40;;;;;;;20.50;45.16;98626.29;220748;1270;22747;-68
2022/06/23 20:00:37;;;;;;;6.50;2.60;;;;;;;20.36;45.77;98625.80;220524;1270;25372;-69
2022/06/23 20:06:01;;;;;;;3.90;2.90;;;;;;;20.25;46.25;98620.35;220459;1270;22543;-68
2022/06/23 20:11:17;;;;;;;5.60;3.00;;;;;;;20.10;46.57;98610.09;220545;1269;23332;-67
2022/06/23 20:16:37;;;;;;;3.00;2.70;;;;;;;19.96;47.00;98612.11;220368;1270;22553;-68
2022/06/23 20:22:10;;;;;;;6.90;4.40;;;;;;;19.80;47.13;98614.39;220116;1270;22691;-69
2022/06/23 20:27:16;;;;;;;5.10;4.60;;;;;;;19.62;47.58;98611.42;220403;1270;24327;-69
2022/06/23 20:32:36;;;;;;;5.30;4.10;;;;;;;19.44;47.89;98613.61;220434;1270;25524;-69
2022/06/23 20:37:53;;;;;;;6.90;3.40;;;;;;;19.24;48.30;98620.90;220479;1270;22559;-69
2022/06/23 20:43:43;;;;;;;3.60;3.20;;;;;;;19.03;48.59;98621.36;220221;1270;22547;-70
2022/06/23 20:49:14;;;;;;;5.90;3.80;;;;;;;18.83;49.00;98619.80;220221;1270;26505;-69
2022/06/23 20:54:38;;;;;;;4.20;3.50;;;;;;;18.65;49.33;98617.32;220461;1270;25286;-69
2022/06/23 20:59:55;;;;;;;3.40;3.10;;;;;;;18.50;49.84;98612.20;220262;1270;22947;-68
2022/06/23 21:05:32;;;;;;;5.90;3.30;;;;;;;18.42;50.51;98616.77;220317;1270;22640;-69
2022/06/23 21:11:14;;;;;;;5.00;3.60;;;;;;;18.38;50.91;98617.58;220502;1271;22797;-69
2022/06/23 21:16:29;;;;;;;4.70;3.00;;;;;;;18.31;51.25;98622.02;220235;1270;24297;-67
2022/06/23 21:22:08;;;;;;;5.70;3.50;;;;;;;18.23;51.59;98625.69;220464;1270;25246;-69
2022/06/23 21:27:42;;;;;;;5.60;3.30;;;;;;;18.16;52.17;98618.80;220488;1270;25422;-67
2022/06/23 21:32:56;;;;;;;8.30;3.30;;;;;;;18.07;52.32;98620.11;220398;1270;22531;-69
2022/06/23 21:38:10;;;;;;;7.30;3.60;;;;;;;17.96;52.56;98619.69;220712;1270;22573;-69
2022/06/23 21:43:15;;;;;;;10.30;3.20;;;;;;;17.83;52.77;98618.80;220085;1270;22576;-68
2022/06/23 21:48:38;;;;;;;8.20;3.40;;;;;;;17.71;53.29;98622.92;220499;1270;22546;-67
2022/06/23 21:53:46;;;;;;;5.40;3.40;;;;;;;17.56;53.37;98620.22;220399;1270;22610;-68
2022/06/23 21:58:58;;;;;;;6.80;3.50;;;;;;;17.41;53.66;98615.34;220578;1270;22555;-67
2022/06/23 22:04:34;;;;;;;4.20;3.20;;;;;;;17.28;54.09;98618.71;220607;1270;22571;-69
2022/06/23 22:09:50;;;;;;;6.20;3.10;;;;;;;17.15;54.43;98617.97;220390;1270;22541;-68
2022/06/23 22:15:02;;;;;;;5.30;3.40;;;;;;;17.01;54.89;98618.25;220514;1270;24445;-69
2022/06/23 22:20:27;;;;;;;6.10;3.90;;;;;;;16.89;55.33;98616.70;220664;1270;26368;-69
2022/06/23 22:32:04;;;;;;;8.00;3.90;;;;;;;16.86;56.46;98620.45;220035;1273;22557;-69
2022/06/23 22:37:19;;;;;;;5.70;4.00;;;;;;;16.87;56.52;98624.83;220673;1270;22601;-68
2022/06/23 22:42:33;;;;;;;6.80;3.60;;;;;;;16.80;56.58;98622.09;220418;1270;22666;-69
2022/06/23 22:47:59;;;;;;;8.40;3.70;;;;;;;16.70;56.59;98616.11;220664;1270;22554;-68
2022/06/23 22:53:31;;;;;;;7.20;3.60;;;;;;;16.56;56.82;98617.09;221061;1270;22532;-69
2022/06/23 22:58:49;;;;;;;9.80;4.10;;;;;;;16.45;57.47;98622.50;220514;1270;24193;-69
2022/06/23 23:04:22;;;;;;;5.50;3.70;;;;;;;16.42;58.03;98620.90;220594;1270;22529;-68
2022/06/23 23:09:26;;;;;;;6.90;3.90;;;;;;;16.35;58.21;98624.37;220723;1270;22532;-69
2022/06/23 23:14:38;;;;;;;5.70;4.00;;;;;;;16.26;58.25;98617.88;220775;1270;25406;-69
2022/06/23 23:19:51;;;;;;;9.30;4.30;;;;;;;16.18;58.63;98614.02;220666;1270;24222;-69
2022/06/23 23:25:14;;;;;;;7.40;4.20;;;;;;;16.09;58.94;98608.59;220294;1270;25422;-69
2022/06/23 23:30:25;;;;;;;5.50;3.80;;;;;;;16.00;59.37;98605.95;220271;1270;24299;-69
2022/06/23 23:35:50;;;;;;;8.30;4.20;;;;;;;15.90;59.97;98604.94;220592;1270;24268;-69
2022/06/23 23:41:16;;;;;;;5.00;4.20;;;;;;;15.82;60.57;98604.16;220487;1270;24212;-69
2022/06/23 23:46:46;;;;;;;7.40;4.20;;;;;;;15.78;60.72;98605.53;220621;1270;23047;-69
2022/06/23 23:51:53;;;;;;;8.60;4.50;;;;;;;15.72;60.86;98604.85;220408;1270;22547;-68
2022/06/23 23:57:02;;;;;;;6.80;4.60;;;;;;;15.66;61.20;98603.75;220856;1271;22564;-68
